createdAt,value
2022-07-31T00:00:02.705Z,22.43
2022-07-31T00:02:04.086Z,22.43
2022-07-31T00:04:05.512Z,22.41
2022-07-31T00:06:06.824Z,22.41
2022-07-31T00:08:09.972Z,22.41
2022-07-31T00:10:11.375Z,22.39
2022-07-31T00:12:12.730Z,22.40
2022-07-31T00:14:14.176Z,22.39
2022-07-31T00:16:15.474Z,22.39
2022-07-31T00:18:18.720Z,22.38
2022-07-31T00:20:20.250Z,22.39
2022-07-31T00:22:21.552Z,22.21
2022-07-31T00:24:22.947Z,22.41
2022-07-31T00:26:24.280Z,22.40
2022-07-31T00:28:25.654Z,22.39
2022-07-31T00:30:26.960Z,22.45
2022-07-31T00:32:28.265Z,22.52
2022-07-31T00:34:29.610Z,22.54
2022-07-31T00:36:30.917Z,22.52
2022-07-31T00:38:32.226Z,22.51
2022-07-31T00:40:33.532Z,22.50
2022-07-31T00:42:34.911Z,22.50
2022-07-31T00:44:36.323Z,22.49
2022-07-31T00:46:40.235Z,22.50
2022-07-31T00:48:41.845Z,22.49
2022-07-31T00:50:43.160Z,22.50
2022-07-31T00:52:45.370Z,22.50
2022-07-31T00:54:46.722Z,22.50
2022-07-31T00:56:48.024Z,22.49
2022-07-31T00:58:49.373Z,22.49
2022-07-31T01:00:50.762Z,22.51
2022-07-31T01:02:52.120Z,22.50
2022-07-31T01:04:53.489Z,22.50
2022-07-31T01:06:54.784Z,22.47
2022-07-31T01:08:56.091Z,22.48
2022-07-31T01:10:57.403Z,22.49
2022-07-31T01:12:58.736Z,22.48
2022-07-31T01:15:00.051Z,22.48
2022-07-31T01:17:01.737Z,22.47
2022-07-31T01:19:03.263Z,22.45
2022-07-31T01:21:04.570Z,22.45
2022-07-31T01:23:05.882Z,22.44
2022-07-31T01:25:07.266Z,22.45
2022-07-31T01:27:08.563Z,22.42
2022-07-31T01:29:10.109Z,22.44
2022-07-31T01:31:26.031Z,22.43
2022-07-31T01:33:28.663Z,22.42
2022-07-31T01:35:29.975Z,22.42
2022-07-31T01:37:31.283Z,22.40
2022-07-31T01:39:33.826Z,22.40
2022-07-31T01:41:35.502Z,22.41
2022-07-31T01:43:38.021Z,22.40
2022-07-31T01:45:39.372Z,22.41
2022-07-31T01:47:40.728Z,22.41
2022-07-31T01:49:42.042Z,22.39
2022-07-31T01:51:44.206Z,22.37
2022-07-31T01:53:45.587Z,22.33
2022-07-31T01:56:03.746Z,22.33
2022-07-31T01:58:05.606Z,22.32
2022-07-31T02:00:06.948Z,22.31
2022-07-31T02:02:28.231Z,22.31
2022-07-31T02:04:29.970Z,22.29
2022-07-31T02:06:31.286Z,22.29
2022-07-31T02:08:32.582Z,22.28
2022-07-31T02:10:33.923Z,22.27
2022-07-31T02:12:35.218Z,22.27
2022-07-31T02:14:36.583Z,22.28
2022-07-31T02:16:38.160Z,22.28
2022-07-31T02:18:39.499Z,22.29
2022-07-31T02:20:40.879Z,22.27
2022-07-31T02:22:42.235Z,22.28
2022-07-31T02:24:43.569Z,22.26
2022-07-31T02:26:44.875Z,22.24
2022-07-31T02:28:46.186Z,22.25
2022-07-31T02:30:47.479Z,22.24
2022-07-31T02:32:48.830Z,22.22
2022-07-31T02:34:50.134Z,22.23
2022-07-31T02:36:52.610Z,22.22
2022-07-31T02:38:54.998Z,22.25
2022-07-31T02:40:56.665Z,22.24
2022-07-31T02:42:58.011Z,22.21
2022-07-31T02:44:59.337Z,22.22
2022-07-31T02:47:02.469Z,22.19
2022-07-31T02:49:03.867Z,22.17
2022-07-31T02:51:05.349Z,22.16
2022-07-31T02:53:06.737Z,22.16
2022-07-31T02:55:08.276Z,22.15
2022-07-31T02:57:09.595Z,22.18
2022-07-31T02:59:10.947Z,22.19
2022-07-31T03:01:14.398Z,22.19
2022-07-31T03:03:16.206Z,22.22
2022-07-31T03:05:17.597Z,22.22
2022-07-31T03:07:18.967Z,22.23
2022-07-31T03:09:20.347Z,22.22
2022-07-31T03:11:21.664Z,22.22
2022-07-31T03:13:23.056Z,22.20
2022-07-31T03:15:24.470Z,22.22
2022-07-31T03:17:38.063Z,22.20
2022-07-31T03:19:42.036Z,22.20
2022-07-31T03:21:43.371Z,22.23
2022-07-31T03:23:44.670Z,22.24
2022-07-31T03:25:45.972Z,22.22
2022-07-31T03:27:55.839Z,22.22
2022-07-31T03:29:57.920Z,22.21
2022-07-31T03:31:59.229Z,22.21
2022-07-31T03:34:00.535Z,22.18
2022-07-31T03:36:02.074Z,22.18
2022-07-31T03:38:38.634Z,22.17
2022-07-31T03:40:25.710Z,22.17
2022-07-31T03:42:27.016Z,22.17
2022-07-31T03:44:28.346Z,22.16
2022-07-31T03:46:29.647Z,22.20
2022-07-31T03:48:31.431Z,22.24
2022-07-31T03:50:32.738Z,22.26
2022-07-31T03:52:34.042Z,22.28
2022-07-31T03:54:35.363Z,22.29
2022-07-31T03:56:36.683Z,22.37
2022-07-31T03:58:38.582Z,22.24
2022-07-31T04:00:40.119Z,22.14
2022-07-31T04:02:41.721Z,22.13
2022-07-31T04:04:43.047Z,22.15
2022-07-31T04:06:44.352Z,22.17
2022-07-31T04:08:45.655Z,22.14
2022-07-31T04:10:46.954Z,22.14
2022-07-31T04:12:48.306Z,22.12
2022-07-31T04:14:51.238Z,22.11
2022-07-31T04:16:52.582Z,22.12
2022-07-31T04:18:53.890Z,22.16
2022-07-31T04:20:55.205Z,22.17
2022-07-31T04:22:56.562Z,22.18
2022-07-31T04:24:59.331Z,22.21
2022-07-31T04:27:01.473Z,22.19
2022-07-31T04:29:02.787Z,22.23
2022-07-31T04:31:04.133Z,22.29
2022-07-31T04:33:05.430Z,22.29
2022-07-31T04:35:06.748Z,22.29
2022-07-31T04:37:08.201Z,22.28
2022-07-31T04:39:09.535Z,22.27
2022-07-31T04:41:10.839Z,22.26
2022-07-31T04:43:12.776Z,22.29
2022-07-31T04:45:14.123Z,22.30
2022-07-31T04:47:15.482Z,22.28
2022-07-31T04:49:16.873Z,22.27
2022-07-31T04:51:18.692Z,22.26
2022-07-31T04:53:20.007Z,22.28
2022-07-31T04:55:21.587Z,22.25
2022-07-31T04:57:23.371Z,22.24
2022-07-31T04:59:24.680Z,22.24
2022-07-31T05:01:46.063Z,22.21
2022-07-31T05:03:47.474Z,22.20
2022-07-31T05:05:50.032Z,22.21
2022-07-31T05:07:51.370Z,22.21
2022-07-31T05:09:52.666Z,22.22
2022-07-31T05:11:53.979Z,22.23
2022-07-31T05:13:55.434Z,22.23
2022-07-31T05:15:56.864Z,22.22
2022-07-31T05:17:58.210Z,22.21
2022-07-31T05:19:59.544Z,22.20
2022-07-31T05:22:03.915Z,22.18
2022-07-31T05:24:05.429Z,22.18
2022-07-31T05:26:06.792Z,22.16
2022-07-31T05:28:09.694Z,22.18
2022-07-31T05:30:11.235Z,22.17
2022-07-31T05:32:12.894Z,22.16
2022-07-31T05:34:14.443Z,22.16
2022-07-31T05:36:15.794Z,22.21
2022-07-31T05:38:17.105Z,22.22
2022-07-31T05:40:18.418Z,22.23
2022-07-31T05:42:19.746Z,22.23
2022-07-31T05:44:21.071Z,22.20
2022-07-31T05:46:22.423Z,22.22
2022-07-31T05:48:23.783Z,22.24
2022-07-31T05:50:25.105Z,22.23
2022-07-31T05:52:26.415Z,22.23
2022-07-31T05:54:27.783Z,22.18
2022-07-31T05:56:29.130Z,22.18
2022-07-31T05:58:30.431Z,22.16
2022-07-31T06:00:31.807Z,22.16
2022-07-31T06:02:33.732Z,22.16
2022-07-31T06:04:35.158Z,22.16
2022-07-31T06:06:36.464Z,22.17
2022-07-31T06:08:37.812Z,22.17
2022-07-31T06:10:39.144Z,22.18
2022-07-31T06:12:40.490Z,22.20
2022-07-31T06:14:41.791Z,22.21
2022-07-31T06:16:43.463Z,22.24
2022-07-31T06:18:44.808Z,22.25
2022-07-31T06:20:46.150Z,22.32
2022-07-31T06:22:47.442Z,22.40
2022-07-31T06:24:48.747Z,22.51
2022-07-31T06:26:50.056Z,22.58
2022-07-31T06:28:51.351Z,22.63
2022-07-31T06:30:52.720Z,22.61
2022-07-31T06:32:54.031Z,22.62
2022-07-31T06:34:55.336Z,22.66
2022-07-31T06:36:56.648Z,22.69
2022-07-31T06:38:57.974Z,22.56
2022-07-31T06:40:59.310Z,22.58
2022-07-31T06:43:04.998Z,22.51
2022-07-31T06:45:08.028Z,22.40
2022-07-31T06:47:13.840Z,22.35
2022-07-31T06:49:17.436Z,22.30
2022-07-31T06:51:34.226Z,22.26
2022-07-31T06:53:35.560Z,22.24
2022-07-31T06:55:36.935Z,22.23
2022-07-31T06:57:45.576Z,22.20
2022-07-31T06:59:46.916Z,22.21
2022-07-31T07:01:48.489Z,22.22
2022-07-31T07:03:49.851Z,22.21
2022-07-31T07:05:51.151Z,22.21
2022-07-31T07:07:53.007Z,22.21
2022-07-31T07:09:54.316Z,22.18
2022-07-31T07:11:55.643Z,22.18
2022-07-31T07:13:56.956Z,22.20
2022-07-31T07:15:58.264Z,22.20
2022-07-31T07:17:59.576Z,22.17
2022-07-31T07:20:00.919Z,22.14
2022-07-31T07:22:02.779Z,22.11
2022-07-31T07:24:04.236Z,22.12
2022-07-31T07:26:05.542Z,22.11
2022-07-31T07:28:06.844Z,22.09
2022-07-31T07:30:08.178Z,22.08
2022-07-31T07:32:10.138Z,22.11
2022-07-31T07:34:11.447Z,22.14
2022-07-31T07:36:23.180Z,22.17
2022-07-31T07:38:24.929Z,22.19
2022-07-31T07:40:28.407Z,22.19
2022-07-31T07:42:29.725Z,22.19
2022-07-31T07:44:31.033Z,22.22
2022-07-31T07:46:32.835Z,22.22
2022-07-31T07:48:34.187Z,22.24
2022-07-31T07:50:35.503Z,22.23
2022-07-31T07:52:39.020Z,22.25
2022-07-31T07:54:43.526Z,22.25
2022-07-31T07:56:45.391Z,22.54
2022-07-31T07:58:49.030Z,22.88
2022-07-31T08:00:50.434Z,23.03
2022-07-31T08:03:02.934Z,23.01
2022-07-31T08:05:13.118Z,23.28
2022-07-31T08:07:14.412Z,23.50
2022-07-31T08:09:15.772Z,23.71
2022-07-31T08:11:17.947Z,23.69
2022-07-31T08:13:19.639Z,23.63
2022-07-31T08:15:21.002Z,23.82
2022-07-31T08:17:22.330Z,23.78
2022-07-31T08:19:23.657Z,23.83
2022-07-31T08:21:24.956Z,23.34
2022-07-31T08:23:26.403Z,23.01
2022-07-31T08:25:31.954Z,23.08
2022-07-31T08:27:39.911Z,23.38
2022-07-31T08:29:42.852Z,23.11
2022-07-31T08:31:49.600Z,23.00
2022-07-31T08:33:51.059Z,22.83
2022-07-31T08:35:52.383Z,23.30
2022-07-31T08:38:03.163Z,23.59
2022-07-31T08:40:05.791Z,23.75
2022-07-31T08:42:07.148Z,23.92
2022-07-31T08:44:08.483Z,23.90
2022-07-31T08:46:09.959Z,24.03
2022-07-31T08:48:11.312Z,24.05
2022-07-31T08:50:12.703Z,24.08
2022-07-31T08:52:15.009Z,24.08
2022-07-31T08:54:16.326Z,24.11
2022-07-31T08:56:17.643Z,24.13
2022-07-31T08:58:18.955Z,24.19
2022-07-31T09:00:22.702Z,24.17
2022-07-31T09:02:24.046Z,24.17
2022-07-31T09:04:25.381Z,24.21
2022-07-31T09:06:26.714Z,24.21
2022-07-31T09:08:28.143Z,24.19
2022-07-31T09:10:29.550Z,24.22
2022-07-31T09:12:32.433Z,24.25
2022-07-31T09:14:35.571Z,24.20
2022-07-31T09:16:36.870Z,24.12
2022-07-31T09:18:38.177Z,24.09
2022-07-31T09:20:39.519Z,24.21
2022-07-31T09:22:40.922Z,24.35
2022-07-31T09:24:42.220Z,24.27
2022-07-31T09:26:44.463Z,24.14
2022-07-31T09:28:45.894Z,24.15
2022-07-31T09:30:56.241Z,23.79
2022-07-31T09:32:58.306Z,24.16
2022-07-31T09:34:59.612Z,24.33
2022-07-31T09:37:01.051Z,24.15
2022-07-31T09:39:04.279Z,24.10
2022-07-31T09:41:55.529Z,24.26
2022-07-31T09:43:31.395Z,24.32
2022-07-31T09:45:33.154Z,24.31
2022-07-31T09:47:34.509Z,24.15
2022-07-31T09:49:35.922Z,23.87
2022-07-31T09:51:37.342Z,23.62
2022-07-31T09:53:43.249Z,23.60
2022-07-31T09:55:44.915Z,24.02
2022-07-31T09:57:50.146Z,23.95
2022-07-31T09:59:51.587Z,24.38
2022-07-31T10:01:52.953Z,24.36
2022-07-31T10:03:54.287Z,24.25
2022-07-31T10:05:55.642Z,24.10
2022-07-31T10:08:00.486Z,24.22
2022-07-31T10:10:01.848Z,24.09
2022-07-31T10:12:03.199Z,24.04
2022-07-31T10:14:04.493Z,23.28
2022-07-31T10:16:05.793Z,24.01
2022-07-31T10:18:08.590Z,24.11
2022-07-31T10:20:10.439Z,24.29
2022-07-31T10:22:11.792Z,24.34
2022-07-31T10:24:13.523Z,24.31
2022-07-31T10:26:15.300Z,23.95
2022-07-31T10:28:16.679Z,23.85
2022-07-31T10:30:18.052Z,23.83
2022-07-31T10:32:19.360Z,23.84
2022-07-31T10:34:20.710Z,23.81
2022-07-31T10:36:22.424Z,23.83
2022-07-31T10:38:23.729Z,23.81
2022-07-31T10:40:25.131Z,23.78
2022-07-31T10:42:27.046Z,23.74
2022-07-31T10:44:28.362Z,23.76
2022-07-31T10:46:29.888Z,23.77
2022-07-31T10:48:31.451Z,23.79
2022-07-31T10:50:32.753Z,23.76
2022-07-31T10:52:34.580Z,23.69
2022-07-31T10:54:35.941Z,23.58
2022-07-31T10:56:37.263Z,23.56
2022-07-31T10:58:38.615Z,24.01
2022-07-31T11:00:40.465Z,24.64
2022-07-31T11:02:42.047Z,24.75
2022-07-31T11:04:43.412Z,24.74
2022-07-31T11:06:46.655Z,24.88
2022-07-31T11:08:48.035Z,25.02
2022-07-31T11:10:49.359Z,24.81
2022-07-31T11:12:50.664Z,24.66
2022-07-31T11:14:52.063Z,24.85
2022-07-31T11:16:53.643Z,24.88
2022-07-31T11:18:54.963Z,24.85
2022-07-31T11:20:56.277Z,24.87
2022-07-31T11:22:57.961Z,24.80
2022-07-31T11:24:59.355Z,24.69
2022-07-31T11:27:00.666Z,24.26
2022-07-31T11:29:58.941Z,24.02
2022-07-31T11:31:23.302Z,23.92
2022-07-31T11:33:24.652Z,23.85
2022-07-31T11:35:25.994Z,23.81
2022-07-31T11:37:30.584Z,23.81
2022-07-31T11:39:51.289Z,23.78
2022-07-31T11:41:55.547Z,23.73
2022-07-31T11:43:57.580Z,23.76
2022-07-31T11:45:59.157Z,23.73
2022-07-31T11:48:12.687Z,23.73
2022-07-31T11:50:15.712Z,23.72
2022-07-31T11:52:31.027Z,23.72
2022-07-31T11:54:38.055Z,23.70
2022-07-31T11:56:40.079Z,23.69
2022-07-31T11:58:41.431Z,23.64
2022-07-31T12:00:42.731Z,23.64
2022-07-31T12:02:44.144Z,24.20
2022-07-31T12:04:45.483Z,24.53
2022-07-31T12:06:46.860Z,24.63
2022-07-31T12:08:49.909Z,24.60
2022-07-31T12:10:51.220Z,24.24
2022-07-31T12:12:52.656Z,24.36
2022-07-31T12:14:53.995Z,24.45
2022-07-31T12:16:55.301Z,24.54
2022-07-31T12:18:59.151Z,24.60
2022-07-31T12:21:00.526Z,24.65
2022-07-31T12:23:01.824Z,24.90
2022-07-31T12:25:06.135Z,24.96
2022-07-31T12:27:10.242Z,24.90
2022-07-31T12:29:14.462Z,24.76
2022-07-31T12:31:15.822Z,24.85
2022-07-31T12:33:17.666Z,24.67
2022-07-31T12:35:19.019Z,24.64
2022-07-31T12:37:21.865Z,24.63
2022-07-31T12:39:23.174Z,24.69
2022-07-31T12:41:25.146Z,24.40
2022-07-31T12:43:26.450Z,24.36
2022-07-31T12:45:27.760Z,24.54
2022-07-31T12:47:30.100Z,24.64
2022-07-31T12:49:31.581Z,24.65
2022-07-31T12:51:45.156Z,23.73
2022-07-31T12:53:47.231Z,24.60
2022-07-31T12:55:48.813Z,24.72
2022-07-31T12:57:50.911Z,24.95
2022-07-31T12:59:53.897Z,24.90
2022-07-31T13:01:55.255Z,24.98
2022-07-31T13:03:58.309Z,24.99
2022-07-31T13:05:59.702Z,24.11
2022-07-31T13:08:01.057Z,23.87
2022-07-31T13:10:20.421Z,23.89
2022-07-31T13:12:23.587Z,23.88
2022-07-31T13:14:24.986Z,23.83
2022-07-31T13:16:26.355Z,23.79
2022-07-31T13:18:29.915Z,23.75
2022-07-31T13:20:31.347Z,23.71
2022-07-31T13:22:33.135Z,23.69
2022-07-31T13:24:35.671Z,23.68
2022-07-31T13:26:37.844Z,23.67
2022-07-31T13:28:39.215Z,23.66
2022-07-31T13:30:40.560Z,23.61
2022-07-31T13:32:41.947Z,23.59
2022-07-31T13:34:43.259Z,23.59
2022-07-31T13:36:44.619Z,23.58
2022-07-31T13:38:45.923Z,23.56
2022-07-31T13:41:05.798Z,23.53
2022-07-31T13:43:07.310Z,23.51
2022-07-31T13:45:08.969Z,23.48
2022-07-31T13:47:10.352Z,23.49
2022-07-31T13:49:11.839Z,23.47
2022-07-31T13:51:13.208Z,23.42
2022-07-31T13:53:14.574Z,23.42
2022-07-31T13:55:15.914Z,23.39
2022-07-31T13:57:17.232Z,23.39
2022-07-31T13:59:18.610Z,23.38
2022-07-31T14:01:19.958Z,23.36
2022-07-31T14:03:21.449Z,23.33
2022-07-31T14:05:23.511Z,23.32
2022-07-31T14:07:48.120Z,23.24
2022-07-31T14:09:55.152Z,23.39
2022-07-31T14:11:58.521Z,23.98
2022-07-31T14:13:59.842Z,23.93
2022-07-31T14:16:01.168Z,23.85
2022-07-31T14:18:07.872Z,23.83
2022-07-31T14:20:09.570Z,23.85
2022-07-31T14:22:11.140Z,23.80
2022-07-31T14:24:12.814Z,23.81
2022-07-31T14:26:14.184Z,23.77
2022-07-31T14:28:15.538Z,23.79
2022-07-31T14:30:19.986Z,23.57
2022-07-31T14:32:22.328Z,23.30
2022-07-31T14:34:23.799Z,23.12
2022-07-31T14:36:36.936Z,23.01
2022-07-31T14:38:38.449Z,23.29
2022-07-31T14:40:39.774Z,23.33
2022-07-31T14:42:41.709Z,23.18
2022-07-31T14:44:43.149Z,23.18
2022-07-31T14:46:44.496Z,23.09
2022-07-31T14:48:45.828Z,23.04
2022-07-31T14:50:47.180Z,23.02
2022-07-31T14:52:48.735Z,23.00
2022-07-31T14:54:50.039Z,23.02
2022-07-31T14:57:01.268Z,22.96
2022-07-31T14:59:03.105Z,22.93
2022-07-31T15:01:04.480Z,22.94
2022-07-31T15:03:05.855Z,22.96
2022-07-31T15:06:40.805Z,22.96
2022-07-31T15:07:38.516Z,23.49
2022-07-31T15:09:42.418Z,23.92
2022-07-31T15:12:00.085Z,23.79
2022-07-31T15:14:02.191Z,23.78
2022-07-31T15:16:04.373Z,23.77
2022-07-31T15:18:05.724Z,23.72
2022-07-31T15:20:30.113Z,23.37
2022-07-31T15:22:53.342Z,23.36
2022-07-31T15:24:54.709Z,23.55
2022-07-31T15:26:56.003Z,23.55
2022-07-31T15:28:57.410Z,23.81
2022-07-31T15:31:01.165Z,23.36
2022-07-31T15:33:02.679Z,23.57
2022-07-31T15:35:04.016Z,23.37
2022-07-31T15:37:05.689Z,23.37
2022-07-31T15:39:07.343Z,23.33
2022-07-31T15:41:08.655Z,23.25
2022-07-31T15:43:09.962Z,23.30
2022-07-31T15:45:11.357Z,23.86
2022-07-31T15:47:13.115Z,24.14
2022-07-31T15:49:14.499Z,24.25
2022-07-31T15:51:16.419Z,24.32
2022-07-31T15:53:17.731Z,24.40
2022-07-31T15:55:19.081Z,24.45
2022-07-31T15:57:20.734Z,24.50
2022-07-31T15:59:22.091Z,24.48
2022-07-31T16:01:23.449Z,24.36
2022-07-31T16:03:24.814Z,24.30
2022-07-31T16:05:46.102Z,24.30
2022-07-31T16:08:30.768Z,24.62
2022-07-31T16:10:19.035Z,24.61
2022-07-31T16:12:20.379Z,24.46
2022-07-31T16:14:21.696Z,24.12
2022-07-31T16:16:25.227Z,24.30
2022-07-31T16:18:26.572Z,24.25
2022-07-31T16:20:27.875Z,24.28
2022-07-31T16:22:29.347Z,24.26
2022-07-31T16:24:30.653Z,24.29
2022-07-31T16:26:33.449Z,24.30
2022-07-31T16:28:34.783Z,24.33
2022-07-31T16:30:36.089Z,24.35
2022-07-31T16:32:37.388Z,24.29
2022-07-31T16:34:39.724Z,23.96
2022-07-31T16:36:41.278Z,23.72
2022-07-31T16:38:45.831Z,23.94
2022-07-31T16:40:53.687Z,24.10
2022-07-31T16:42:55.991Z,24.33
2022-07-31T16:44:58.423Z,24.25
2022-07-31T16:46:59.856Z,24.19
2022-07-31T16:49:01.277Z,24.54
2022-07-31T16:51:22.555Z,24.63
2022-07-31T16:54:10.617Z,24.66
2022-07-31T16:55:59.620Z,24.53
2022-07-31T16:58:02.477Z,24.60
2022-07-31T17:00:03.843Z,24.72
2022-07-31T17:02:05.196Z,24.78
2022-07-31T17:04:06.537Z,24.71
2022-07-31T17:06:07.923Z,24.25
2022-07-31T17:08:09.355Z,23.77
2022-07-31T17:10:10.687Z,23.89
2022-07-31T17:12:12.099Z,24.01
2022-07-31T17:14:13.447Z,24.04
2022-07-31T17:16:14.859Z,23.93
2022-07-31T17:18:16.214Z,23.62
2022-07-31T17:20:23.486Z,23.45
2022-07-31T17:22:24.868Z,23.38
2022-07-31T17:24:26.345Z,23.30
2022-07-31T17:26:29.161Z,23.26
2022-07-31T17:28:30.531Z,23.23
2022-07-31T17:30:32.614Z,23.19
2022-07-31T17:32:34.580Z,23.15
2022-07-31T17:34:35.996Z,23.10
2022-07-31T17:36:37.347Z,23.07
2022-07-31T17:38:38.799Z,23.04
2022-07-31T17:40:44.236Z,23.01
2022-07-31T17:42:45.735Z,22.97
2022-07-31T17:44:49.813Z,22.95
2022-07-31T17:46:54.691Z,22.89
2022-07-31T17:48:56.075Z,22.82
2022-07-31T17:50:57.512Z,22.77
2022-07-31T17:52:58.827Z,22.73
2022-07-31T17:55:01.363Z,22.70
2022-07-31T17:57:02.721Z,22.64
2022-07-31T17:59:05.372Z,22.56
2022-07-31T18:03:08.746Z,22.50
2022-07-31T18:05:10.069Z,22.49
2022-07-31T18:07:11.439Z,22.43
2022-07-31T18:09:12.755Z,22.38
2022-07-31T18:11:14.131Z,22.33
2022-07-31T18:13:15.445Z,22.29
2022-07-31T18:15:16.799Z,22.29
2022-07-31T18:17:19.410Z,22.28
2022-07-31T18:19:21.821Z,22.28
2022-07-31T18:21:23.151Z,22.24
2022-07-31T18:23:29.403Z,22.25
2022-07-31T18:25:33.600Z,22.20
2022-07-31T18:27:35.027Z,22.17
2022-07-31T18:29:36.433Z,22.12
2022-07-31T18:31:37.829Z,22.10
2022-07-31T18:33:42.619Z,22.05
2022-07-31T18:35:43.986Z,22.03
2022-07-31T18:37:45.296Z,22.02
2022-07-31T18:39:47.910Z,22.01
2022-07-31T18:41:50.747Z,21.05
2022-07-31T18:43:52.050Z,21.94
2022-07-31T18:45:53.368Z,21.90
2022-07-31T18:47:54.844Z,21.90
2022-07-31T18:50:58.697Z,22.45
2022-07-31T18:52:17.656Z,22.65
2022-07-31T18:54:19.923Z,22.93
2022-07-31T18:56:21.262Z,23.14
2022-07-31T18:58:22.557Z,23.07
2022-07-31T19:00:23.952Z,23.05
2022-07-31T19:02:28.087Z,22.83
2022-07-31T19:04:29.564Z,22.73
2022-07-31T19:06:30.865Z,22.71
2022-07-31T19:08:32.618Z,23.11
2022-07-31T19:10:33.945Z,23.13
2022-07-31T19:12:35.352Z,22.95
2022-07-31T19:14:36.897Z,22.68
2022-07-31T19:16:38.204Z,22.57
2022-07-31T19:18:40.392Z,22.77
2022-07-31T19:20:58.812Z,22.68
2022-07-31T19:23:03.010Z,21.86
2022-07-31T19:25:04.310Z,23.25
2022-07-31T19:27:05.699Z,23.14
2022-07-31T19:29:07.156Z,23.22
2022-07-31T19:31:08.488Z,23.19
2022-07-31T19:33:09.795Z,23.11
2022-07-31T19:35:11.920Z,23.07
2022-07-31T19:37:13.337Z,23.15
2022-07-31T19:39:14.674Z,23.25
2022-07-31T19:41:16.041Z,22.93
2022-07-31T19:43:17.370Z,23.03
2022-07-31T19:45:21.766Z,23.08
2022-07-31T19:47:23.120Z,23.18
2022-07-31T19:49:24.604Z,22.91
2022-07-31T19:51:26.063Z,22.90
2022-07-31T19:53:27.390Z,23.07
2022-07-31T19:55:29.194Z,22.92
2022-07-31T19:57:38.867Z,22.91
2022-07-31T19:59:40.478Z,22.99
2022-07-31T20:01:41.810Z,22.68
2022-07-31T20:03:43.208Z,22.01
2022-07-31T20:05:44.570Z,21.71
2022-07-31T20:07:45.910Z,21.64
2022-07-31T20:09:47.998Z,21.58
2022-07-31T20:11:49.299Z,21.56
2022-07-31T20:13:50.667Z,21.47
2022-07-31T20:15:53.163Z,21.46
2022-07-31T20:17:54.610Z,21.48
2022-07-31T20:20:15.041Z,21.45
2022-07-31T20:22:17.378Z,21.43
2022-07-31T20:24:18.765Z,21.75
2022-07-31T20:26:20.074Z,21.77
2022-07-31T20:28:21.447Z,21.62
2022-07-31T20:30:25.035Z,21.57
2022-07-31T20:32:26.343Z,21.39
2022-07-31T20:34:27.720Z,21.34
2022-07-31T20:36:29.068Z,21.29
2022-07-31T20:38:30.366Z,21.27
2022-07-31T20:40:31.716Z,21.59
2022-07-31T20:42:33.058Z,21.90
2022-07-31T20:44:34.370Z,21.82
2022-07-31T20:46:35.784Z,21.61
2022-07-31T20:48:37.088Z,21.47
2022-07-31T20:50:38.447Z,21.47
2022-07-31T20:52:39.758Z,21.46
2022-07-31T20:54:41.078Z,21.41
2022-07-31T20:56:42.575Z,21.61
2022-07-31T20:58:46.199Z,22.06
2022-07-31T21:00:50.931Z,21.98
2022-07-31T21:02:52.310Z,22.00
2022-07-31T21:04:53.612Z,22.04
2022-07-31T21:06:54.982Z,22.16
2022-07-31T21:08:56.283Z,22.17
2022-07-31T21:10:57.649Z,22.21
2022-07-31T21:13:02.434Z,22.31
2022-07-31T21:15:03.751Z,22.23
2022-07-31T21:17:06.086Z,22.39
2022-07-31T21:19:07.404Z,22.57
2022-07-31T21:21:11.740Z,22.47
2022-07-31T21:23:14.455Z,22.45
2022-07-31T21:25:16.132Z,21.95
2022-07-31T21:27:17.468Z,22.12
2022-07-31T21:29:18.776Z,22.06
2022-07-31T21:31:20.089Z,22.17
2022-07-31T21:33:21.407Z,22.22
2022-07-31T21:35:36.437Z,22.47
2022-07-31T21:37:40.193Z,22.31
2022-07-31T21:39:41.712Z,22.28
2022-07-31T21:41:43.049Z,22.47
2022-07-31T21:43:58.648Z,22.39
2022-07-31T21:46:01.996Z,22.22
2022-07-31T21:48:03.480Z,22.22
2022-07-31T21:50:06.843Z,22.18
2022-07-31T21:52:08.277Z,22.28
2022-07-31T21:54:11.715Z,22.40
2022-07-31T21:56:16.038Z,22.36
2022-07-31T21:58:17.381Z,22.28
2022-07-31T22:00:18.747Z,22.27
2022-07-31T22:02:27.575Z,22.23
2022-07-31T22:04:29.155Z,22.19
2022-07-31T22:06:55.031Z,22.25
2022-07-31T22:08:56.341Z,22.18
2022-07-31T22:10:57.712Z,22.10
2022-07-31T22:12:59.006Z,22.11
2022-07-31T22:15:00.344Z,22.16
2022-07-31T22:17:01.654Z,22.13
2022-07-31T22:19:03.206Z,22.03
2022-07-31T22:21:04.605Z,21.61
2022-07-31T22:23:05.915Z,21.71
2022-07-31T22:25:07.215Z,22.12
2022-07-31T22:27:27.199Z,22.41
2022-07-31T22:29:28.490Z,22.57
2022-07-31T22:31:29.848Z,22.61
2022-07-31T22:33:31.159Z,22.60
2022-07-31T22:35:32.493Z,22.60
2022-07-31T22:37:33.848Z,22.60
2022-07-31T22:39:35.156Z,22.57
2022-07-31T22:41:36.463Z,22.57
2022-07-31T22:44:10.316Z,22.55
2022-07-31T22:45:59.056Z,22.54
2022-07-31T22:48:00.405Z,22.51
2022-07-31T22:50:01.729Z,22.51
2022-07-31T22:52:03.279Z,22.51
2022-07-31T22:54:04.867Z,22.50
2022-07-31T22:56:06.175Z,22.49
2022-07-31T22:58:11.259Z,22.50
2022-07-31T23:00:12.671Z,22.50
2022-07-31T23:02:13.996Z,22.51
2022-07-31T23:04:15.343Z,22.49
2022-07-31T23:06:32.078Z,22.47
2022-07-31T23:08:33.843Z,22.47
2022-07-31T23:10:35.203Z,22.45
2022-07-31T23:12:36.519Z,22.43
2022-07-31T23:14:37.833Z,22.43
2022-07-31T23:16:39.149Z,22.43
2022-07-31T23:18:40.467Z,22.41
2022-07-31T23:20:41.831Z,22.40
2022-07-31T23:22:43.167Z,22.40
2022-07-31T23:24:44.474Z,22.41
2022-07-31T23:26:45.779Z,22.40
2022-07-31T23:28:47.157Z,22.40
2022-07-31T23:30:48.474Z,22.41
2022-07-31T23:32:49.815Z,22.43
2022-07-31T23:34:51.136Z,22.43
2022-07-31T23:36:52.444Z,22.47
2022-07-31T23:38:53.794Z,22.47
2022-07-31T23:40:56.401Z,22.47
2022-07-31T23:42:57.710Z,22.47
2022-07-31T23:44:59.075Z,22.48
2022-07-31T23:47:00.407Z,22.47
2022-07-31T23:49:04.206Z,22.46
2022-07-31T23:51:05.626Z,22.47
2022-07-31T23:53:06.933Z,22.45
2022-07-31T23:55:08.249Z,22.44
2022-07-31T23:57:09.576Z,22.47
2022-07-31T23:59:10.908Z,22.52
